AirNav   Everest Fuels
 
 1186 users online  

4II8 Willis Airport
Greenfield, Indiana, USA

GOING TO GREENFIELD?


FAA INFORMATION EFFECTIVE 25 MARCH 2021

Location

FAA Identifier: 4II8
Lat/Long: 39-43-20.1580N 085-42-59.9180W
39-43.335967N 085-42.998633W
39.7222661,-85.7166439
(estimated)
Elevation: 880 ft. / 268 m (estimated)
Variation: 02W (1985)
From city: 5 miles SE of GREENFIELD, IN
Time zone: UTC -4 (UTC -5 during Standard Time)
Zip code: 46140

Airport Operations

Airport use: Private use. Permission required prior to landing
Activation date: 08/1983
Control tower: no
ARTCC: INDIANAPOLIS CENTER
FSS: TERRE HAUTE FLIGHT SERVICE STATION
Attendance: UNATNDD
Wind indicator: yes
Segmented circle: no

Airport Communications

WX ASOS at GEZ (9 nm SW): 121.55 (317-398-0246)
WX AWOS-3 at MQJ (11 nm NW): 124.175 (317-335-3037)
WX AWOS-3P at HFY (18 nm W): 118.525 (317-882-5862)
WX AWOS-3 at UMP (20 nm NW): 119.375 (317-842-3911)

Nearby radio navigation aids

VOR radial/distance  VOR name  Freq  Var
SHBr042/7.3SHELBYVILLE VOR/DME112.0001E
VHPr099/30.5BRICKYARD VORTAC116.3001E
MIEr209/34.3MUNCIE VOR/DME114.4003W

 
NDB name  Hdg/Dist  Freq  Var  ID
METROPOLITAN133/20.133803WUMP ..- -- .--.
NEW CASTLE249/20.638506WUWL ..- .-- .-..
BATESVILLE322/30.925405WHLB .... .-.. -...

Airport Services

Runway Information

Runway 9/27

Dimensions: 3500 x 100 ft. / 1067 x 30 m
Surface: turf, in good condition
RUNWAY 9  RUNWAY 27
Traffic pattern: leftleft
Obstructions: plinenone

Airport Ownership and Management from official FAA records

Ownership: Privately-owned
Owner: ROBERT J. WILLIS
25 S. SUGAR CREEK DR.
NEW PALESTINE, IN 46163-7898
Phone (317) 727-5653
Manager: ROBERT J. WILLIS
25 S. SUGAR CREEK DR.
NEW PALESTINE, IN 46163-7898
Phone (317) 727-5653

Additional Remarks

FOR CD CTC INDIANAPOLIS APCH AT 317-227-5743.

Instrument Procedures

There are no published instrument procedures at 4II8.

Some nearby airports with instrument procedures:

KGEZ - Shelbyville Municipal Airport (9 nm SW)
KMQJ - Indianapolis Regional Airport (11 nm NW)
KHFY - Indy South Greenwood Airport (18 nm W)
KUMP - Indianapolis Metro Airport (20 nm NW)
8A4 - Indianapolis Downtown Heliport (20 nm W)
 
Loc | Ops | Rwys | IFR | FBO | Links
Com | Nav | Svcs | Stats | Notes
Area around 4II8 (Willis Airport)
 
Road maps at: MapQuest Bing Google
 
Aerial photo
No photo
 
Sectional chart

 
Airport distance calculator
Flying to Willis Airport? Find the distance to fly.

From to 4II8

Sunrise and sunset
Times for 12-Apr-2021
 Local
(UTC-4)
 Zulu
(UTC)
Morning civil twilight06:4310:43
Sunrise07:1111:11
Sunset20:1700:17
Evening civil twilight20:4400:44

Current date and time
Zulu (UTC)  12-Apr-2021 22:38:00
Local (UTC-4)  12-Apr-2021 18:38:00
 
METAR
KGEZ 
9nm SW 
122153Z AUTO 29018G24KT 10SM FEW055 20/06 A2986 RMK AO2 SLP109 T02000061
KMQJ 
11nm NW 
122215Z AUTO 29015G21KT 10SM SCT055 17/09 A2988 RMK AO1
KHFY 
18nm W 
122215Z AUTO 29012G24KT 10SM SCT050 18/07 A2988 RMK AO2 T01750066
TAF
KIND 
26nm W 
122020Z 1220/1324 29013G25KT P6SM SCT050 FM122300 28009KT P6SM FEW250 FM130600 29006KT P6SM BKN100 FM131500 26010KT P6SM SCT120
NOTAMs
Click for the latest NOTAMs
NOTAMs are issued by the DoD/FAA and will open in a separate window not controlled by AirNav.

 

 
 

Would you like to see your business listed on this page?

 If your business provides an interesting product or service to pilots, flight crews, aircraft, or users of the Willis Airport, you should consider listing it here.  To start the listing process, click on the button below
 
Add a business
 

Other Pages about Willis Airport

Update a link
 
Copyright © AirNav, LLC. All rights reserved. Privacy Policy  Contact